Interlaken, Suiza

1:54 AM CEST en Septiembre 20, 2014 (GMT +0200)
Iseltwald Oberdorf | Change Station
CLOSE
Current Station
Estación meteorológica personal
Location: Iseltwald, BERN
Altura: 2661 ft
Estaciones meteorológicas cercanas

Alt 2661 ft 46.71 °N, 7.97 °E | Updated 6 minutes ago

Scattered Clouds
Nubes dispersas
58.6 ° F
Sensación térmica 58.6 ° F
N
1.6
Viento Variable Viento desde Sur
Gusts 2.2 mph

Hoy
Alta -- | Baja -- ° F
--% Posibilidad de precipitaciones
Ayer
Alta -- | Baja -- ° F
Precip. -- pul
7:12 AM 7:30 PM
Creciente menguante, 16% visible
Presión 30.04 pul
Visibilidad 6.2 Millas
Nubes Nubes dispersas 11000 ft
Punto de rocío 55 ° F
Humedad 89%
Precipitaciones 0.00 pul
Espesor de la nieve No disponible.
UV 0 de una escala de 12
Polen No disponible.
Calidad del aire No disponible.
Flu Activity No disponible.
METAR LSZB 192350Z AUTO 26003KT 9999 SCT110 SCT///CB 16/15 Q1017

More Conditions Fewer Conditions

Presión 30.04 pul
Visibilidad 6.2 Millas
Nubes Nubes dispersas 11000 ft
Punto de rocío 55 ° F
Humedad 89%
Precipitaciones 0.00 pul
Espesor de la nieve No disponible.
UV 0 de una escala de 12
Polen No disponible.
Calidad del aire No disponible.
Flu Activity No disponible.
METAR LSZB 192350Z AUTO 26003KT 9999 SCT110 SCT///CB 16/15 Q1017

More Conditions Fewer Conditions

10-Day Weather Forecast

Almanac

Astronomía

Sep. 20, 2014 Salida Puesta
Hora real 7:12 AM CEST 7:30 PM CEST
Crepúsculo civil 6:42 AM CEST 8:00 PM CEST
Crepúsculo náutico 6:06 AM CEST 8:36 PM CEST
Crepúsculo astronómico 5:29 AM CEST 9:13 PM CEST
Luna 3:26 AM CEST (9/20) 5:33 PM CEST (9/20)
Horas de luz 13h 18m
Horas de luz
12h 18m
Tomorrow will be 3m 18s shorter.
Creciente menguante, 16% of the Moon is Illuminated
Sep 19
Creciente menguante
Sep 24
Nueva
Oct 1
Cuarto creciente
Oct 8
Luna llena
Oct 15
Cuarto menguante

Extremos de ayer

Máximos del país Bajas del país

Community

WunderPhotos

Upload Photos

1,754,730 ¡fotos cargadas!

Nearby

Calidad del aire

Not available.

Grosos de nieve

Not available.

Actividad de terremotos

Ciudad Distance Mag. Tiempo y dato
No hay informes recientes de la actividad sísmica.
Magnitud mínima muestra es 2,5.

Temperaturas de aguas costeras

Lugar Temperatura
Sin partes meteorológicos de las estaciones

Estaciones meteorológicas cercanas